LIPL/QBS METAR and TAF weather

Enter ICAO airport designator
Station Type Date Time Source
LIPL METAR 2021/08/02 01:55 UTC NOAA

LIPL 020155Z 02002KT CAVOK 19/17 Q1009 RMK SKC VIS MIN 9999 WIND THR31 35002KT WIND THR13 01002KT BLU


Station Type Date Time Source
LIPL Decoded METAR 2021/08/02 01:55 UTC NOAA

Brescia / Ghedi, Italy (LIPL) 45-25N 010-17E 97M
Aug 01, 2021 - 09:55 PM EDT / 2021.08.02 0155 UTC
Wind: from the NNE (020 degrees) at 2 MPH (2 KT):0
Visibility: greater than 7 mile(s):0
Temperature: 66 F (19 C)
Dew Point: 62 F (17 C)
Relative Humidity: 88%
Pressure (altimeter): 29.80 in. Hg (1009 hPa)
ob: LIPL 020155Z 02002KT CAVOK 19/17 Q1009 RMK SKC VIS MIN 9999 WIND THR31 35002KT WIND THR13 01002KT BLU
cycle: 2

Station Type Date Time Source
LIPL TAF 2021/07/07 09:24 UTC NOAA

TAF TAF LIPL 070800Z 0709/0721 12008KT CAVOK

Example: see airport list